sensor_id;sensor_type;location;lat;lon;timestamp;P1;durP1;ratioP1;P2;durP2;ratioP2
41229;SDS011;26964;50.428;19.218;2023-08-31T00:01:00;10.8;;;8.3;;
41229;SDS011;26964;50.428;19.218;2023-08-31T00:01:59;13.9;;;8.4;;
41229;SDS011;26964;50.428;19.218;2023-08-31T00:02:59;10.6;;;8.0;;
41229;SDS011;26964;50.428;19.218;2023-08-31T00:03:59;10.2;;;8.4;;
41229;SDS011;26964;50.428;19.218;2023-08-31T00:04:59;11.0;;;8.3;;
41229;SDS011;26964;50.428;19.218;2023-08-31T00:06:00;10.8;;;7.7;;
41229;SDS011;26964;50.428;19.218;2023-08-31T00:06:59;10.1;;;8.4;;
41229;SDS011;26964;50.428;19.218;2023-08-31T00:07:59;11.0;;;7.9;;
41229;SDS011;26964;50.428;19.218;2023-08-31T00:08:59;13.9;;;9.4;;
41229;SDS011;26964;50.428;19.218;2023-08-31T00:09:59;10.7;;;8.3;;
41229;SDS011;26964;50.428;19.218;2023-08-31T00:11:00;11.7;;;9.3;;
41229;SDS011;26964;50.428;19.218;2023-08-31T00:12:00;12.5;;;8.0;;
41229;SDS011;26964;50.428;19.218;2023-08-31T00:12:59;12.8;;;9.0;;
41229;SDS011;26964;50.428;19.218;2023-08-31T00:13:59;11.1;;;8.3;;
41229;SDS011;26964;50.428;19.218;2023-08-31T00:14:59;11.9;;;8.6;;
41229;SDS011;26964;50.428;19.218;2023-08-31T00:15:59;12.0;;;9.1;;
41229;SDS011;26964;50.428;19.218;2023-08-31T00:16:59;11.4;;;8.8;;
41229;SDS011;26964;50.428;19.218;2023-08-31T00:17:59;10.4;;;8.8;;
41229;SDS011;26964;50.428;19.218;2023-08-31T00:18:59;10.1;;;8.2;;
41229;SDS011;26964;50.428;19.218;2023-08-31T00:19:59;15.4;;;8.4;;
41229;SDS011;26964;50.428;19.218;2023-08-31T00:20:59;10.2;;;8.7;;
41229;SDS011;26964;50.428;19.218;2023-08-31T00:21:59;10.7;;;8.8;;
41229;SDS011;26964;50.428;19.218;2023-08-31T00:22:59;11.7;;;8.9;;
41229;SDS011;26964;50.428;19.218;2023-08-31T00:23:59;10.0;;;8.3;;
41229;SDS011;26964;50.428;19.218;2023-08-31T00:24:59;10.6;;;8.7;;
41229;SDS011;26964;50.428;19.218;2023-08-31T00:25:59;11.4;;;9.0;;
41229;SDS011;26964;50.428;19.218;2023-08-31T00:26:59;11.1;;;8.8;;
41229;SDS011;26964;50.428;19.218;2023-08-31T00:27:59;11.3;;;9.1;;
41229;SDS011;26964;50.428;19.218;2023-08-31T00:28:59;12.9;;;9.2;;
41229;SDS011;26964;50.428;19.218;2023-08-31T00:29:59;14.6;;;9.9;;
41229;SDS011;26964;50.428;19.218;2023-08-31T00:31:00;14.4;;;9.5;;
41229;SDS011;26964;50.428;19.218;2023-08-31T00:31:59;13.2;;;9.6;;
41229;SDS011;26964;50.428;19.218;2023-08-31T00:32:59;13.6;;;10.1;;
41229;SDS011;26964;50.428;19.218;2023-08-31T00:33:59;13.6;;;10.0;;
41229;SDS011;26964;50.428;19.218;2023-08-31T00:34:59;12.8;;;9.9;;
41229;SDS011;26964;50.428;19.218;2023-08-31T00:35:59;14.7;;;11.0;;
41229;SDS011;26964;50.428;19.218;2023-08-31T00:36:59;12.9;;;10.4;;
41229;SDS011;26964;50.428;19.218;2023-08-31T00:37:59;15.1;;;11.0;;
41229;SDS011;26964;50.428;19.218;2023-08-31T00:39:59;14.7;;;11.6;;
41229;SDS011;26964;50.428;19.218;2023-08-31T00:40:59;14.8;;;11.0;;
41229;SDS011;26964;50.428;19.218;2023-08-31T00:41:59;14.7;;;11.6;;
41229;SDS011;26964;50.428;19.218;2023-08-31T00:42:59;17.2;;;12.3;;
41229;SDS011;26964;50.428;19.218;2023-08-31T00:43:59;14.4;;;11.9;;
41229;SDS011;26964;50.428;19.218;2023-08-31T00:44:59;15.7;;;11.9;;
41229;SDS011;26964;50.428;19.218;2023-08-31T00:45:59;16.8;;;12.9;;
41229;SDS011;26964;50.428;19.218;2023-08-31T00:46:59;18.3;;;13.1;;
41229;SDS011;26964;50.428;19.218;2023-08-31T00:47:59;17.6;;;13.4;;
41229;SDS011;26964;50.428;19.218;2023-08-31T00:48:59;18.6;;;14.1;;
41229;SDS011;26964;50.428;19.218;2023-08-31T00:49:59;16.8;;;12.9;;
41229;SDS011;26964;50.428;19.218;2023-08-31T00:50:59;15.6;;;13.0;;
41229;SDS011;26964;50.428;19.218;2023-08-31T00:51:59;15.5;;;11.9;;
41229;SDS011;26964;50.428;19.218;2023-08-31T00:52:59;15.1;;;12.7;;
41229;SDS011;26964;50.428;19.218;2023-08-31T00:53:59;17.4;;;12.7;;
41229;SDS011;26964;50.428;19.218;2023-08-31T00:54:59;17.7;;;13.0;;
41229;SDS011;26964;50.428;19.218;2023-08-31T00:55:59;18.1;;;13.8;;
41229;SDS011;26964;50.428;19.218;2023-08-31T00:56:59;16.6;;;13.7;;
41229;SDS011;26964;50.428;19.218;2023-08-31T00:57:59;19.7;;;14.0;;
41229;SDS011;26964;50.428;19.218;2023-08-31T00:58:59;19.8;;;13.4;;
41229;SDS011;26964;50.428;19.218;2023-08-31T00:59:59;17.1;;;13.9;;
41229;SDS011;26964;50.428;19.218;2023-08-31T01:01:00;19.1;;;14.6;;
41229;SDS011;26964;50.428;19.218;2023-08-31T01:02:01;17.0;;;13.8;;
41229;SDS011;26964;50.428;19.218;2023-08-31T01:02:59;16.5;;;13.4;;
41229;SDS011;26964;50.428;19.218;2023-08-31T01:04:01;17.7;;;14.4;;
41229;SDS011;26964;50.428;19.218;2023-08-31T01:05:01;18.8;;;14.5;;
41229;SDS011;26964;50.428;19.218;2023-08-31T01:06:00;17.9;;;14.2;;
41229;SDS011;26964;50.428;19.218;2023-08-31T01:06:59;17.3;;;14.0;;
41229;SDS011;26964;50.428;19.218;2023-08-31T01:08:01;21.7;;;14.7;;
41229;SDS011;26964;50.428;19.218;2023-08-31T01:09:01;24.2;;;14.8;;
41229;SDS011;26964;50.428;19.218;2023-08-31T01:11:01;18.8;;;14.6;;
41229;SDS011;26964;50.428;19.218;2023-08-31T01:12:00;18.5;;;14.3;;
41229;SDS011;26964;50.428;19.218;2023-08-31T01:13:00;21.1;;;15.5;;
41229;SDS011;26964;50.428;19.218;2023-08-31T01:14:00;19.6;;;14.5;;
41229;SDS011;26964;50.428;19.218;2023-08-31T01:14:59;17.8;;;14.3;;
41229;SDS011;26964;50.428;19.218;2023-08-31T01:16:00;21.0;;;16.2;;
41229;SDS011;26964;50.428;19.218;2023-08-31T01:16:59;20.5;;;14.7;;
41229;SDS011;26964;50.428;19.218;2023-08-31T01:17:59;19.1;;;15.2;;
41229;SDS011;26964;50.428;19.218;2023-08-31T01:19:00;19.0;;;15.3;;
41229;SDS011;26964;50.428;19.218;2023-08-31T01:19:59;22.4;;;16.2;;
41229;SDS011;26964;50.428;19.218;2023-08-31T01:21:00;23.2;;;16.2;;
41229;SDS011;26964;50.428;19.218;2023-08-31T01:21:59;19.6;;;15.0;;
41229;SDS011;26964;50.428;19.218;2023-08-31T01:23:00;19.3;;;14.8;;
41229;SDS011;26964;50.428;19.218;2023-08-31T01:23:59;21.5;;;15.3;;
41229;SDS011;26964;50.428;19.218;2023-08-31T01:24:59;22.2;;;16.8;;
41229;SDS011;26964;50.428;19.218;2023-08-31T01:25:58;22.5;;;16.4;;
41229;SDS011;26964;50.428;19.218;2023-08-31T01:26:59;19.6;;;15.7;;
41229;SDS011;26964;50.428;19.218;2023-08-31T01:27:59;21.6;;;16.4;;
41229;SDS011;26964;50.428;19.218;2023-08-31T01:28:59;20.8;;;15.8;;
41229;SDS011;26964;50.428;19.218;2023-08-31T01:29:59;24.1;;;17.2;;
41229;SDS011;26964;50.428;19.218;2023-08-31T01:31:03;23.4;;;16.2;;
41229;SDS011;26964;50.428;19.218;2023-08-31T01:31:58;22.6;;;15.9;;
41229;SDS011;26964;50.428;19.218;2023-08-31T01:32:58;21.6;;;16.1;;
41229;SDS011;26964;50.428;19.218;2023-08-31T01:33:59;22.6;;;16.2;;
41229;SDS011;26964;50.428;19.218;2023-08-31T01:34:59;20.4;;;15.7;;
41229;SDS011;26964;50.428;19.218;2023-08-31T01:35:58;19.5;;;14.9;;
41229;SDS011;26964;50.428;19.218;2023-08-31T01:36:59;22.0;;;14.8;;
41229;SDS011;26964;50.428;19.218;2023-08-31T01:37:59;19.4;;;14.7;;
41229;SDS011;26964;50.428;19.218;2023-08-31T01:39:01;18.7;;;14.3;;
41229;SDS011;26964;50.428;19.218;2023-08-31T01:40:00;20.4;;;15.7;;
41229;SDS011;26964;50.428;19.218;2023-08-31T01:41:00;20.4;;;14.5;;
41229;SDS011;26964;50.428;19.218;2023-08-31T01:42:00;22.0;;;15.8;;
41229;SDS011;26964;50.428;19.218;2023-08-31T01:42:58;21.2;;;15.5;;
41229;SDS011;26964;50.428;19.218;2023-08-31T01:43:58;19.6;;;14.8;;
41229;SDS011;26964;50.428;19.218;2023-08-31T01:44:59;18.7;;;13.9;;
41229;SDS011;26964;50.428;19.218;2023-08-31T01:45:59;20.6;;;15.1;;
41229;SDS011;26964;50.428;19.218;2023-08-31T01:47:01;25.8;;;13.9;;
41229;SDS011;26964;50.428;19.218;2023-08-31T01:47:59;17.5;;;14.1;;
41229;SDS011;26964;50.428;19.218;2023-08-31T01:48:58;16.9;;;13.8;;
41229;SDS011;26964;50.428;19.218;2023-08-31T01:49:58;18.3;;;13.7;;
41229;SDS011;26964;50.428;19.218;2023-08-31T01:50:59;17.1;;;13.7;;
41229;SDS011;26964;50.428;19.218;2023-08-31T01:51:58;17.8;;;13.4;;
41229;SDS011;26964;50.428;19.218;2023-08-31T01:52:58;19.1;;;13.0;;
41229;SDS011;26964;50.428;19.218;2023-08-31T01:53:59;16.5;;;12.3;;
41229;SDS011;26964;50.428;19.218;2023-08-31T01:54:58;19.7;;;13.3;;
41229;SDS011;26964;50.428;19.218;2023-08-31T01:55:59;16.8;;;12.7;;
41229;SDS011;26964;50.428;19.218;2023-08-31T01:56:58;16.5;;;12.4;;
41229;SDS011;26964;50.428;19.218;2023-08-31T01:57:58;22.6;;;14.0;;
41229;SDS011;26964;50.428;19.218;2023-08-31T01:58:58;18.0;;;12.7;;
41229;SDS011;26964;50.428;19.218;2023-08-31T01:59:58;16.0;;;12.5;;
41229;SDS011;26964;50.428;19.218;2023-08-31T02:00:58;17.6;;;13.2;;
41229;SDS011;26964;50.428;19.218;2023-08-31T02:01:59;15.4;;;11.8;;
41229;SDS011;26964;50.428;19.218;2023-08-31T02:02:59;19.3;;;13.1;;
41229;SDS011;26964;50.428;19.218;2023-08-31T02:03:58;18.4;;;12.4;;
41229;SDS011;26964;50.428;19.218;2023-08-31T02:04:58;15.7;;;12.2;;
41229;SDS011;26964;50.428;19.218;2023-08-31T02:05:58;20.4;;;12.4;;
41229;SDS011;26964;50.428;19.218;2023-08-31T02:06:58;15.3;;;11.6;;
41229;SDS011;26964;50.428;19.218;2023-08-31T02:07:58;16.1;;;12.2;;
41229;SDS011;26964;50.428;19.218;2023-08-31T02:08:58;15.4;;;11.1;;
41229;SDS011;26964;50.428;19.218;2023-08-31T02:09:58;20.0;;;12.1;;
41229;SDS011;26964;50.428;19.218;2023-08-31T02:10:58;15.3;;;11.9;;
41229;SDS011;26964;50.428;19.218;2023-08-31T02:11:58;17.9;;;12.2;;
41229;SDS011;26964;50.428;19.218;2023-08-31T02:12:59;13.6;;;11.4;;
41229;SDS011;26964;50.428;19.218;2023-08-31T02:13:58;16.0;;;11.7;;
41229;SDS011;26964;50.428;19.218;2023-08-31T02:14:59;16.8;;;12.2;;
41229;SDS011;26964;50.428;19.218;2023-08-31T02:15:58;15.7;;;12.1;;
41229;SDS011;26964;50.428;19.218;2023-08-31T02:16:58;15.5;;;12.5;;
41229;SDS011;26964;50.428;19.218;2023-08-31T02:17:58;15.7;;;11.8;;
41229;SDS011;26964;50.428;19.218;2023-08-31T02:18:59;18.6;;;11.5;;
41229;SDS011;26964;50.428;19.218;2023-08-31T02:19:58;16.7;;;11.6;;
41229;SDS011;26964;50.428;19.218;2023-08-31T02:20:58;16.5;;;12.4;;
41229;SDS011;26964;50.428;19.218;2023-08-31T02:21:58;17.0;;;12.1;;
41229;SDS011;26964;50.428;19.218;2023-08-31T02:22:58;16.0;;;11.8;;
41229;SDS011;26964;50.428;19.218;2023-08-31T02:23:59;16.4;;;12.4;;
41229;SDS011;26964;50.428;19.218;2023-08-31T02:24:58;20.2;;;13.8;;
41229;SDS011;26964;50.428;19.218;2023-08-31T02:25:58;18.3;;;12.7;;
41229;SDS011;26964;50.428;19.218;2023-08-31T02:26:58;18.5;;;13.1;;
41229;SDS011;26964;50.428;19.218;2023-08-31T02:27:58;17.2;;;12.4;;
41229;SDS011;26964;50.428;19.218;2023-08-31T02:28:58;18.1;;;12.5;;
41229;SDS011;26964;50.428;19.218;2023-08-31T02:29:58;15.5;;;12.1;;
41229;SDS011;26964;50.428;19.218;2023-08-31T02:30:59;17.5;;;12.5;;
41229;SDS011;26964;50.428;19.218;2023-08-31T02:31:58;15.4;;;12.2;;
41229;SDS011;26964;50.428;19.218;2023-08-31T02:32:58;17.0;;;13.1;;
41229;SDS011;26964;50.428;19.218;2023-08-31T02:33:58;16.7;;;12.0;;
41229;SDS011;26964;50.428;19.218;2023-08-31T02:34:59;16.9;;;12.6;;
41229;SDS011;26964;50.428;19.218;2023-08-31T02:35:58;15.9;;;12.3;;
41229;SDS011;26964;50.428;19.218;2023-08-31T02:36:58;16.7;;;12.1;;
41229;SDS011;26964;50.428;19.218;2023-08-31T02:37:58;16.6;;;12.2;;
41229;SDS011;26964;50.428;19.218;2023-08-31T02:38:58;20.3;;;12.0;;
41229;SDS011;26964;50.428;19.218;2023-08-31T02:39:58;15.4;;;12.1;;
41229;SDS011;26964;50.428;19.218;2023-08-31T02:40:58;14.0;;;11.7;;
41229;SDS011;26964;50.428;19.218;2023-08-31T02:41:58;17.9;;;12.6;;
41229;SDS011;26964;50.428;19.218;2023-08-31T02:42:58;14.3;;;12.2;;
41229;SDS011;26964;50.428;19.218;2023-08-31T02:43:58;16.7;;;12.7;;
41229;SDS011;26964;50.428;19.218;2023-08-31T02:44:58;17.1;;;11.9;;
41229;SDS011;26964;50.428;19.218;2023-08-31T02:45:59;16.0;;;11.5;;
41229;SDS011;26964;50.428;19.218;2023-08-31T02:46:58;14.6;;;11.8;;
41229;SDS011;26964;50.428;19.218;2023-08-31T02:47:58;17.6;;;12.6;;
41229;SDS011;26964;50.428;19.218;2023-08-31T02:48:58;18.6;;;12.9;;
41229;SDS011;26964;50.428;19.218;2023-08-31T02:49:58;16.5;;;12.2;;
41229;SDS011;26964;50.428;19.218;2023-08-31T02:50:59;14.1;;;12.2;;
41229;SDS011;26964;50.428;19.218;2023-08-31T02:51:58;14.5;;;11.9;;
41229;SDS011;26964;50.428;19.218;2023-08-31T02:52:58;17.7;;;12.7;;
41229;SDS011;26964;50.428;19.218;2023-08-31T02:53:58;17.5;;;12.2;;
41229;SDS011;26964;50.428;19.218;2023-08-31T02:54:58;18.9;;;11.7;;
41229;SDS011;26964;50.428;19.218;2023-08-31T02:55:58;15.6;;;11.6;;
41229;SDS011;26964;50.428;19.218;2023-08-31T02:56:58;15.3;;;12.2;;
41229;SDS011;26964;50.428;19.218;2023-08-31T02:57:59;16.6;;;12.7;;
41229;SDS011;26964;50.428;19.218;2023-08-31T02:58:58;15.9;;;12.4;;
41229;SDS011;26964;50.428;19.218;2023-08-31T02:59:58;16.4;;;11.3;;
41229;SDS011;26964;50.428;19.218;2023-08-31T03:01:58;14.4;;;11.7;;
41229;SDS011;26964;50.428;19.218;2023-08-31T03:02:58;13.6;;;11.7;;
41229;SDS011;26964;50.428;19.218;2023-08-31T03:03:58;14.1;;;12.4;;
41229;SDS011;26964;50.428;19.218;2023-08-31T03:04:58;14.5;;;11.9;;
41229;SDS011;26964;50.428;19.218;2023-08-31T03:05:58;15.4;;;12.6;;
41229;SDS011;26964;50.428;19.218;2023-08-31T03:06:59;14.4;;;12.2;;
41229;SDS011;26964;50.428;19.218;2023-08-31T03:07:58;17.6;;;12.5;;
41229;SDS011;26964;50.428;19.218;2023-08-31T03:08:58;16.0;;;11.5;;
41229;SDS011;26964;50.428;19.218;2023-08-31T03:09:58;17.1;;;11.6;;
41229;SDS011;26964;50.428;19.218;2023-08-31T03:10:58;15.1;;;12.0;;
41229;SDS011;26964;50.428;19.218;2023-08-31T03:11:58;14.8;;;12.2;;
41229;SDS011;26964;50.428;19.218;2023-08-31T03:12:58;16.5;;;12.4;;
41229;SDS011;26964;50.428;19.218;2023-08-31T03:13:58;14.3;;;11.9;;
41229;SDS011;26964;50.428;19.218;2023-08-31T03:14:58;15.0;;;11.8;;
41229;SDS011;26964;50.428;19.218;2023-08-31T03:15:58;15.3;;;12.8;;
41229;SDS011;26964;50.428;19.218;2023-08-31T03:16:58;14.9;;;11.4;;
41229;SDS011;26964;50.428;19.218;2023-08-31T03:17:59;17.0;;;12.2;;
41229;SDS011;26964;50.428;19.218;2023-08-31T03:18:58;17.9;;;12.7;;
41229;SDS011;26964;50.428;19.218;2023-08-31T03:19:58;16.8;;;12.8;;
41229;SDS011;26964;50.428;19.218;2023-08-31T03:20:58;16.2;;;12.6;;
41229;SDS011;26964;50.428;19.218;2023-08-31T03:21:58;17.5;;;12.9;;
41229;SDS011;26964;50.428;19.218;2023-08-31T03:22:58;15.9;;;12.5;;
41229;SDS011;26964;50.428;19.218;2023-08-31T03:23:59;17.7;;;13.5;;
41229;SDS011;26964;50.428;19.218;2023-08-31T03:24:58;17.4;;;13.7;;
41229;SDS011;26964;50.428;19.218;2023-08-31T03:25:58;16.6;;;13.7;;
41229;SDS011;26964;50.428;19.218;2023-08-31T03:26:58;16.4;;;12.8;;
41229;SDS011;26964;50.428;19.218;2023-08-31T03:27:58;17.7;;;12.9;;
41229;SDS011;26964;50.428;19.218;2023-08-31T03:28:59;16.0;;;13.5;;
41229;SDS011;26964;50.428;19.218;2023-08-31T03:29:58;16.1;;;12.6;;
41229;SDS011;26964;50.428;19.218;2023-08-31T03:30:58;16.0;;;12.7;;
41229;SDS011;26964;50.428;19.218;2023-08-31T03:31:59;16.6;;;13.4;;
41229;SDS011;26964;50.428;19.218;2023-08-31T03:32:58;15.4;;;12.6;;
41229;SDS011;26964;50.428;19.218;2023-08-31T03:33:58;15.2;;;12.6;;
41229;SDS011;26964;50.428;19.218;2023-08-31T03:34:58;15.9;;;12.9;;
41229;SDS011;26964;50.428;19.218;2023-08-31T03:36:00;17.0;;;12.6;;
41229;SDS011;26964;50.428;19.218;2023-08-31T03:36:58;15.1;;;12.3;;
41229;SDS011;26964;50.428;19.218;2023-08-31T03:37:58;18.0;;;13.5;;
41229;SDS011;26964;50.428;19.218;2023-08-31T03:38:58;20.5;;;14.2;;
41229;SDS011;26964;50.428;19.218;2023-08-31T03:39:59;15.7;;;12.3;;
41229;SDS011;26964;50.428;19.218;2023-08-31T03:40:58;17.3;;;13.4;;
41229;SDS011;26964;50.428;19.218;2023-08-31T03:41:58;16.6;;;12.4;;
41229;SDS011;26964;50.428;19.218;2023-08-31T03:42:58;15.5;;;12.7;;
41229;SDS011;26964;50.428;19.218;2023-08-31T03:43:58;16.6;;;13.2;;
41229;SDS011;26964;50.428;19.218;2023-08-31T03:44:58;17.0;;;13.2;;
41229;SDS011;26964;50.428;19.218;2023-08-31T03:45:59;16.7;;;13.1;;
41229;SDS011;26964;50.428;19.218;2023-08-31T03:46:59;15.8;;;12.2;;
41229;SDS011;26964;50.428;19.218;2023-08-31T03:47:59;17.7;;;13.5;;
41229;SDS011;26964;50.428;19.218;2023-08-31T03:48:59;18.0;;;12.5;;
41229;SDS011;26964;50.428;19.218;2023-08-31T03:49:58;18.9;;;13.5;;
41229;SDS011;26964;50.428;19.218;2023-08-31T03:50:58;17.9;;;13.8;;
41229;SDS011;26964;50.428;19.218;2023-08-31T03:51:58;21.1;;;14.7;;
41229;SDS011;26964;50.428;19.218;2023-08-31T03:52:58;20.9;;;14.8;;
41229;SDS011;26964;50.428;19.218;2023-08-31T03:53:58;20.4;;;15.3;;
41229;SDS011;26964;50.428;19.218;2023-08-31T03:54:58;18.6;;;15.6;;
41229;SDS011;26964;50.428;19.218;2023-08-31T03:55:58;20.2;;;15.8;;
41229;SDS011;26964;50.428;19.218;2023-08-31T03:56:58;18.5;;;15.0;;
41229;SDS011;26964;50.428;19.218;2023-08-31T03:57:58;23.8;;;16.8;;
41229;SDS011;26964;50.428;19.218;2023-08-31T03:58:58;21.5;;;16.4;;
41229;SDS011;26964;50.428;19.218;2023-08-31T03:59:58;22.7;;;16.3;;
41229;SDS011;26964;50.428;19.218;2023-08-31T04:00:58;23.0;;;16.6;;
41229;SDS011;26964;50.428;19.218;2023-08-31T04:01:58;22.2;;;16.1;;
41229;SDS011;26964;50.428;19.218;2023-08-31T04:02:58;24.3;;;15.1;;
41229;SDS011;26964;50.428;19.218;2023-08-31T04:03:58;18.9;;;15.2;;
41229;SDS011;26964;50.428;19.218;2023-08-31T04:04:58;21.5;;;15.7;;
41229;SDS011;26964;50.428;19.218;2023-08-31T04:05:58;20.5;;;15.6;;
41229;SDS011;26964;50.428;19.218;2023-08-31T04:06:58;17.9;;;14.7;;
41229;SDS011;26964;50.428;19.218;2023-08-31T04:07:58;17.2;;;14.3;;
41229;SDS011;26964;50.428;19.218;2023-08-31T04:08:58;17.8;;;14.1;;
41229;SDS011;26964;50.428;19.218;2023-08-31T04:09:58;18.4;;;14.5;;
41229;SDS011;26964;50.428;19.218;2023-08-31T04:10:58;19.2;;;14.2;;
41229;SDS011;26964;50.428;19.218;2023-08-31T04:11:58;22.4;;;15.5;;
41229;SDS011;26964;50.428;19.218;2023-08-31T04:12:58;20.2;;;15.1;;
41229;SDS011;26964;50.428;19.218;2023-08-31T04:13:58;19.5;;;15.4;;
41229;SDS011;26964;50.428;19.218;2023-08-31T04:14:58;21.7;;;16.0;;
41229;SDS011;26964;50.428;19.218;2023-08-31T04:15:58;21.4;;;15.8;;
41229;SDS011;26964;50.428;19.218;2023-08-31T04:16:58;23.1;;;16.8;;
41229;SDS011;26964;50.428;19.218;2023-08-31T04:17:58;23.1;;;16.1;;
41229;SDS011;26964;50.428;19.218;2023-08-31T04:18:58;21.1;;;15.9;;
41229;SDS011;26964;50.428;19.218;2023-08-31T04:19:58;25.0;;;16.7;;
41229;SDS011;26964;50.428;19.218;2023-08-31T04:20:58;21.8;;;15.8;;
41229;SDS011;26964;50.428;19.218;2023-08-31T04:21:58;24.4;;;16.4;;
41229;SDS011;26964;50.428;19.218;2023-08-31T04:22:58;22.2;;;15.2;;
41229;SDS011;26964;50.428;19.218;2023-08-31T04:23:59;21.4;;;16.2;;
41229;SDS011;26964;50.428;19.218;2023-08-31T04:24:58;22.9;;;16.4;;
41229;SDS011;26964;50.428;19.218;2023-08-31T04:25:58;23.5;;;16.7;;
41229;SDS011;26964;50.428;19.218;2023-08-31T04:26:58;22.9;;;17.1;;
41229;SDS011;26964;50.428;19.218;2023-08-31T04:27:58;22.0;;;16.5;;
41229;SDS011;26964;50.428;19.218;2023-08-31T04:28:58;23.6;;;16.5;;
41229;SDS011;26964;50.428;19.218;2023-08-31T04:29:58;22.0;;;15.5;;
41229;SDS011;26964;50.428;19.218;2023-08-31T04:30:58;25.6;;;15.3;;
41229;SDS011;26964;50.428;19.218;2023-08-31T04:31:58;22.6;;;15.8;;
41229;SDS011;26964;50.428;19.218;2023-08-31T04:32:58;21.8;;;15.6;;
41229;SDS011;26964;50.428;19.218;2023-08-31T04:33:58;23.2;;;15.5;;
41229;SDS011;26964;50.428;19.218;2023-08-31T04:34:58;21.5;;;15.8;;
41229;SDS011;26964;50.428;19.218;2023-08-31T04:35:58;23.7;;;16.1;;
41229;SDS011;26964;50.428;19.218;2023-08-31T04:36:58;25.6;;;16.4;;
41229;SDS011;26964;50.428;19.218;2023-08-31T04:37:58;25.5;;;15.1;;
41229;SDS011;26964;50.428;19.218;2023-08-31T04:38:58;23.0;;;15.1;;
41229;SDS011;26964;50.428;19.218;2023-08-31T04:39:58;20.0;;;15.5;;
41229;SDS011;26964;50.428;19.218;2023-08-31T04:40:58;19.6;;;14.2;;
41229;SDS011;26964;50.428;19.218;2023-08-31T04:41:58;23.5;;;15.4;;
41229;SDS011;26964;50.428;19.218;2023-08-31T04:42:58;20.6;;;14.5;;
41229;SDS011;26964;50.428;19.218;2023-08-31T04:43:58;21.9;;;16.0;;
41229;SDS011;26964;50.428;19.218;2023-08-31T04:44:58;18.5;;;14.1;;
41229;SDS011;26964;50.428;19.218;2023-08-31T04:45:59;22.7;;;15.8;;
41229;SDS011;26964;50.428;19.218;2023-08-31T04:46:58;22.2;;;15.5;;
41229;SDS011;26964;50.428;19.218;2023-08-31T04:47:58;25.3;;;15.4;;
41229;SDS011;26964;50.428;19.218;2023-08-31T04:48:58;23.8;;;14.8;;
41229;SDS011;26964;50.428;19.218;2023-08-31T04:49:58;20.2;;;14.2;;
41229;SDS011;26964;50.428;19.218;2023-08-31T04:50:58;24.5;;;15.4;;
41229;SDS011;26964;50.428;19.218;2023-08-31T04:51:58;19.7;;;14.5;;
41229;SDS011;26964;50.428;19.218;2023-08-31T04:52:58;18.3;;;14.1;;
41229;SDS011;26964;50.428;19.218;2023-08-31T04:53:58;22.6;;;14.6;;
41229;SDS011;26964;50.428;19.218;2023-08-31T04:55:00;21.2;;;14.3;;
41229;SDS011;26964;50.428;19.218;2023-08-31T04:55:58;18.6;;;14.4;;
41229;SDS011;26964;50.428;19.218;2023-08-31T04:56:58;21.4;;;14.6;;
41229;SDS011;26964;50.428;19.218;2023-08-31T04:57:58;22.3;;;14.2;;
41229;SDS011;26964;50.428;19.218;2023-08-31T04:58:58;21.3;;;13.6;;
41229;SDS011;26964;50.428;19.218;2023-08-31T04:59:58;21.0;;;15.5;;
41229;SDS011;26964;50.428;19.218;2023-08-31T05:00:58;18.3;;;14.0;;
41229;SDS011;26964;50.428;19.218;2023-08-31T05:01:58;21.3;;;14.2;;
41229;SDS011;26964;50.428;19.218;2023-08-31T05:02:58;22.2;;;14.8;;
41229;SDS011;26964;50.428;19.218;2023-08-31T05:03:58;21.6;;;14.8;;
41229;SDS011;26964;50.428;19.218;2023-08-31T05:04:58;20.6;;;14.2;;
41229;SDS011;26964;50.428;19.218;2023-08-31T05:05:58;21.3;;;14.8;;
41229;SDS011;26964;50.428;19.218;2023-08-31T05:06:59;20.4;;;14.2;;
41229;SDS011;26964;50.428;19.218;2023-08-31T05:07:58;23.5;;;15.8;;
41229;SDS011;26964;50.428;19.218;2023-08-31T05:08:58;23.0;;;14.9;;
41229;SDS011;26964;50.428;19.218;2023-08-31T05:09:58;23.1;;;14.9;;
41229;SDS011;26964;50.428;19.218;2023-08-31T05:10:58;20.2;;;15.3;;
41229;SDS011;26964;50.428;19.218;2023-08-31T05:11:59;26.0;;;16.7;;
41229;SDS011;26964;50.428;19.218;2023-08-31T05:12:58;22.2;;;16.3;;
41229;SDS011;26964;50.428;19.218;2023-08-31T05:13:58;22.8;;;16.5;;
41229;SDS011;26964;50.428;19.218;2023-08-31T05:14:58;30.1;;;17.5;;
41229;SDS011;26964;50.428;19.218;2023-08-31T05:15:58;25.9;;;17.4;;
41229;SDS011;26964;50.428;19.218;2023-08-31T05:16:58;28.6;;;17.1;;
41229;SDS011;26964;50.428;19.218;2023-08-31T05:17:58;22.9;;;16.5;;
41229;SDS011;26964;50.428;19.218;2023-08-31T05:18:58;20.3;;;15.8;;
41229;SDS011;26964;50.428;19.218;2023-08-31T05:19:58;23.4;;;17.3;;
41229;SDS011;26964;50.428;19.218;2023-08-31T05:20:58;24.0;;;17.3;;
41229;SDS011;26964;50.428;19.218;2023-08-31T05:21:58;21.5;;;15.8;;
41229;SDS011;26964;50.428;19.218;2023-08-31T05:22:58;19.7;;;14.8;;
41229;SDS011;26964;50.428;19.218;2023-08-31T05:23:58;20.1;;;14.4;;
41229;SDS011;26964;50.428;19.218;2023-08-31T05:24:58;19.6;;;13.4;;
41229;SDS011;26964;50.428;19.218;2023-08-31T05:25:58;20.7;;;13.6;;
41229;SDS011;26964;50.428;19.218;2023-08-31T05:26:58;21.8;;;14.3;;
41229;SDS011;26964;50.428;19.218;2023-08-31T05:27:58;21.6;;;13.7;;
41229;SDS011;26964;50.428;19.218;2023-08-31T05:28:58;18.9;;;13.4;;
41229;SDS011;26964;50.428;19.218;2023-08-31T05:29:58;16.9;;;13.0;;
41229;SDS011;26964;50.428;19.218;2023-08-31T05:30:59;16.9;;;12.8;;
41229;SDS011;26964;50.428;19.218;2023-08-31T05:31:58;17.8;;;12.3;;
41229;SDS011;26964;50.428;19.218;2023-08-31T05:32:58;17.7;;;12.3;;
41229;SDS011;26964;50.428;19.218;2023-08-31T05:33:58;15.0;;;11.2;;
41229;SDS011;26964;50.428;19.218;2023-08-31T05:34:58;15.7;;;12.0;;
41229;SDS011;26964;50.428;19.218;2023-08-31T05:35:58;16.5;;;12.2;;
41229;SDS011;26964;50.428;19.218;2023-08-31T05:36:58;20.7;;;12.9;;
41229;SDS011;26964;50.428;19.218;2023-08-31T05:37:58;16.6;;;12.0;;
41229;SDS011;26964;50.428;19.218;2023-08-31T05:38:58;16.6;;;11.1;;
41229;SDS011;26964;50.428;19.218;2023-08-31T05:39:58;12.9;;;9.6;;
41229;SDS011;26964;50.428;19.218;2023-08-31T05:41:58;12.8;;;10.0;;
41229;SDS011;26964;50.428;19.218;2023-08-31T05:42:58;14.1;;;9.7;;
41229;SDS011;26964;50.428;19.218;2023-08-31T05:43:58;14.6;;;10.3;;
41229;SDS011;26964;50.428;19.218;2023-08-31T05:44:58;11.5;;;9.1;;
41229;SDS011;26964;50.428;19.218;2023-08-31T05:45:58;14.1;;;10.4;;
41229;SDS011;26964;50.428;19.218;2023-08-31T05:46:58;16.6;;;9.9;;
41229;SDS011;26964;50.428;19.218;2023-08-31T05:47:58;13.6;;;9.7;;
41229;SDS011;26964;50.428;19.218;2023-08-31T05:48:58;14.2;;;9.0;;
41229;SDS011;26964;50.428;19.218;2023-08-31T05:49:58;12.2;;;9.4;;
41229;SDS011;26964;50.428;19.218;2023-08-31T05:50:58;12.0;;;9.5;;
41229;SDS011;26964;50.428;19.218;2023-08-31T05:51:58;14.5;;;9.7;;
41229;SDS011;26964;50.428;19.218;2023-08-31T05:52:58;11.9;;;9.0;;
41229;SDS011;26964;50.428;19.218;2023-08-31T05:53:58;11.3;;;9.2;;
41229;SDS011;26964;50.428;19.218;2023-08-31T05:54:58;12.5;;;8.9;;
41229;SDS011;26964;50.428;19.218;2023-08-31T05:55:58;11.8;;;9.3;;
41229;SDS011;26964;50.428;19.218;2023-08-31T05:56:58;12.5;;;9.1;;
41229;SDS011;26964;50.428;19.218;2023-08-31T05:57:58;12.0;;;8.7;;
41229;SDS011;26964;50.428;19.218;2023-08-31T05:58:58;11.5;;;8.7;;
41229;SDS011;26964;50.428;19.218;2023-08-31T05:59:58;12.1;;;8.6;;
41229;SDS011;26964;50.428;19.218;2023-08-31T06:00:58;11.7;;;8.9;;